Terminal Aerodrome Forecast
Issued by NWS

Home | Current Version | Previous Version | Text Only | Print | Product List | Glossary On
Versions: 1 2 3 4 5 6 7 8 9 10 11 12 13 14 15 16
000
FTUS43 KMQT 311138
TAFCMX
TAF
KCMX 311138Z 3112/0112 28011G17KT P6SM SCT090
     FM311400 29014G22KT P6SM SCT080
     FM311800 28016G24KT P6SM SCT060
     FM312200 29011G17KT P6SM VCSH BKN070
     FM010200 29010KT P6SM SCT070=

USA.gov is the U.S. government's official web portal to all federal, state and local government web resources and services.